Airfield :
LOGIN :

Register | Disclaimer

   EN    FR    IT 

 










Legend :    VFR   Marginal VFR   IFR   Intensive IFR   Very Intensive IFR
Visi :
Ceiling :
>= 8 km
>= 3000ft
5 to 8 km
1000 to 3000 ft
1500m to 5 km
500 to 1000 ft
800 to 1500m
200 to 500 ft
< 800m
< 200 ft
Symbols :   Thunderstorms  Fog  Heavy snow  Heavy precipitations  Wind > 20 kt
SIGMETs :     Misc.  Thunderstorms  Icing  Turbulence  Mountain Waves  Volcanic Ashes







- Airport Elevation : 5600 ft
- IATA code : SMV


LSZS - Samedan

CURRENT METAR :
  • 201450Z 21022G34KT 9999 3500SW -RA VCTSBR BKN060CB 12/07 Q1019 RMK T

EXPIRED METARs :
  • 201420Z 18011KT 9999 BKN080CB 17/08 Q1018 RMK S
  • 201350Z VRB02KT 9999 BKN060TCU 18/09 Q1018 RMK R
  • 201320Z VRB02KT 9999 SCT060TCU 16/07 Q1018 RMK Q
  • 201250Z VRB02KT 9999 SCT050TCU 16/06 Q1019 RERA R21/19//// RMK P
  • 201220Z 21005KT 120V290 9999 -RA BKN050TCU 13/08 Q1019 R21/29//// RMK O

TAF TAF LSZS
Valid from the 20 at 15:00 until the 21 at 00:00 UTC


201425Z 2015/2024 20005KT 9999 SCT050 BKN080 TX17/2015Z
TEMPO 2015/2020 SHRA SCT050TCU
TEMPO 2015/2020 20015G25KT 4000 TSRA SCT040CB
ATIS : +41 81 834 93 24
No reported NOTAMs for that airfield.



MET'MAP, your aeronautical weather chart ! - Copyright ORBIFLY December 2007 - Disclaimer

ORBIFLY MET'MAP TEAM :

Programming & Development : Alexandra Zaïnal
Concept & Development : Baudouin d'Aumeries
Co-Development & Prog : Marc-Olivier Méhu
Technical & hardware support : Manuel Goepfert

Contact : metmap@orbifly.com




SOURCES & CREDITS :

   NOAA